sensor_id;sensor_type;location;lat;lon;timestamp;P1;durP1;ratioP1;P2;durP2;ratioP2
10565;SDS011;5331;48.148;16.326;2023-02-15T00:02:01;26.90;;;15.40;;
10565;SDS011;5331;48.148;16.326;2023-02-15T00:04:28;25.60;;;15.17;;
10565;SDS011;5331;48.148;16.326;2023-02-15T00:07:11;24.33;;;14.33;;
10565;SDS011;5331;48.148;16.326;2023-02-15T00:09:39;24.10;;;15.27;;
10565;SDS011;5331;48.148;16.326;2023-02-15T00:12:06;25.87;;;15.17;;
10565;SDS011;5331;48.148;16.326;2023-02-15T00:14:34;26.87;;;15.30;;
10565;SDS011;5331;48.148;16.326;2023-02-15T00:17:03;24.40;;;15.50;;
10565;SDS011;5331;48.148;16.326;2023-02-15T00:19:30;25.97;;;15.17;;
10565;SDS011;5331;48.148;16.326;2023-02-15T00:21:57;22.27;;;14.57;;
10565;SDS011;5331;48.148;16.326;2023-02-15T00:24:24;26.97;;;15.13;;
10565;SDS011;5331;48.148;16.326;2023-02-15T00:26:51;24.13;;;15.17;;
10565;SDS011;5331;48.148;16.326;2023-02-15T00:29:18;24.80;;;14.27;;
10565;SDS011;5331;48.148;16.326;2023-02-15T00:31:46;25.53;;;15.13;;
10565;SDS011;5331;48.148;16.326;2023-02-15T00:34:15;25.43;;;15.67;;
10565;SDS011;5331;48.148;16.326;2023-02-15T00:36:44;24.37;;;14.87;;
10565;SDS011;5331;48.148;16.326;2023-02-15T00:39:11;23.07;;;14.10;;
10565;SDS011;5331;48.148;16.326;2023-02-15T00:41:39;26.23;;;14.90;;
10565;SDS011;5331;48.148;16.326;2023-02-15T00:44:06;25.03;;;15.67;;
10565;SDS011;5331;48.148;16.326;2023-02-15T00:46:34;31.30;;;16.90;;
10565;SDS011;5331;48.148;16.326;2023-02-15T00:49:01;25.67;;;14.97;;
10565;SDS011;5331;48.148;16.326;2023-02-15T00:51:30;26.90;;;15.47;;
10565;SDS011;5331;48.148;16.326;2023-02-15T00:53:57;25.10;;;15.80;;
10565;SDS011;5331;48.148;16.326;2023-02-15T00:56:25;25.57;;;15.90;;
10565;SDS011;5331;48.148;16.326;2023-02-15T00:58:53;25.03;;;15.33;;
10565;SDS011;5331;48.148;16.326;2023-02-15T01:01:20;25.27;;;15.43;;
10565;SDS011;5331;48.148;16.326;2023-02-15T01:03:48;25.90;;;15.10;;
10565;SDS011;5331;48.148;16.326;2023-02-15T01:06:15;25.87;;;14.93;;
10565;SDS011;5331;48.148;16.326;2023-02-15T01:08:44;26.33;;;15.73;;
10565;SDS011;5331;48.148;16.326;2023-02-15T01:11:26;28.33;;;15.13;;
10565;SDS011;5331;48.148;16.326;2023-02-15T01:13:54;24.93;;;15.13;;
10565;SDS011;5331;48.148;16.326;2023-02-15T01:16:22;24.80;;;15.07;;
10565;SDS011;5331;48.148;16.326;2023-02-15T01:18:51;28.23;;;16.20;;
10565;SDS011;5331;48.148;16.326;2023-02-15T01:21:20;25.93;;;14.87;;
10565;SDS011;5331;48.148;16.326;2023-02-15T01:23:50;24.70;;;15.03;;
10565;SDS011;5331;48.148;16.326;2023-02-15T01:26:17;25.70;;;15.53;;
10565;SDS011;5331;48.148;16.326;2023-02-15T01:28:44;24.93;;;14.53;;
10565;SDS011;5331;48.148;16.326;2023-02-15T01:31:12;26.30;;;15.23;;
10565;SDS011;5331;48.148;16.326;2023-02-15T01:33:40;27.90;;;15.40;;
10565;SDS011;5331;48.148;16.326;2023-02-15T01:36:08;25.77;;;14.53;;
10565;SDS011;5331;48.148;16.326;2023-02-15T01:38:35;24.17;;;15.03;;
10565;SDS011;5331;48.148;16.326;2023-02-15T01:41:03;26.87;;;15.70;;
10565;SDS011;5331;48.148;16.326;2023-02-15T01:43:49;26.50;;;15.57;;
10565;SDS011;5331;48.148;16.326;2023-02-15T01:46:19;25.33;;;15.73;;
10565;SDS011;5331;48.148;16.326;2023-02-15T01:48:50;25.50;;;15.93;;
10565;SDS011;5331;48.148;16.326;2023-02-15T01:51:22;24.20;;;14.47;;
10565;SDS011;5331;48.148;16.326;2023-02-15T01:53:53;27.67;;;15.20;;
10565;SDS011;5331;48.148;16.326;2023-02-15T01:56:27;26.13;;;15.20;;
10565;SDS011;5331;48.148;16.326;2023-02-15T01:58:58;29.37;;;16.23;;
10565;SDS011;5331;48.148;16.326;2023-02-15T02:01:28;26.60;;;15.10;;
10565;SDS011;5331;48.148;16.326;2023-02-15T02:03:56;25.57;;;14.93;;
10565;SDS011;5331;48.148;16.326;2023-02-15T02:06:28;24.53;;;15.57;;
10565;SDS011;5331;48.148;16.326;2023-02-15T02:08:56;26.63;;;15.47;;
10565;SDS011;5331;48.148;16.326;2023-02-15T02:11:24;24.53;;;13.90;;
10565;SDS011;5331;48.148;16.326;2023-02-15T02:13:52;26.80;;;16.43;;
10565;SDS011;5331;48.148;16.326;2023-02-15T02:16:22;25.23;;;15.27;;
10565;SDS011;5331;48.148;16.326;2023-02-15T02:18:59;27.37;;;16.07;;
10565;SDS011;5331;48.148;16.326;2023-02-15T02:21:55;30.10;;;17.07;;
10565;SDS011;5331;48.148;16.326;2023-02-15T02:24:55;24.47;;;14.83;;
10565;SDS011;5331;48.148;16.326;2023-02-15T02:27:37;24.87;;;14.73;;
10565;SDS011;5331;48.148;16.326;2023-02-15T02:33:21;24.27;;;14.20;;
10565;SDS011;5331;48.148;16.326;2023-02-15T02:36:02;25.80;;;15.57;;
10565;SDS011;5331;48.148;16.326;2023-02-15T02:38:38;26.57;;;15.40;;
10565;SDS011;5331;48.148;16.326;2023-02-15T02:41:16;23.23;;;14.27;;
10565;SDS011;5331;48.148;16.326;2023-02-15T02:43:57;23.83;;;14.80;;
10565;SDS011;5331;48.148;16.326;2023-02-15T02:46:32;23.43;;;14.80;;
10565;SDS011;5331;48.148;16.326;2023-02-15T02:49:03;25.97;;;16.00;;
10565;SDS011;5331;48.148;16.326;2023-02-15T02:51:30;23.30;;;13.57;;
10565;SDS011;5331;48.148;16.326;2023-02-15T02:53:58;28.27;;;15.93;;
10565;SDS011;5331;48.148;16.326;2023-02-15T02:56:32;26.47;;;15.33;;
10565;SDS011;5331;48.148;16.326;2023-02-15T02:59:04;27.00;;;15.93;;
10565;SDS011;5331;48.148;16.326;2023-02-15T03:01:37;25.80;;;15.10;;
10565;SDS011;5331;48.148;16.326;2023-02-15T03:04:10;27.90;;;15.90;;
10565;SDS011;5331;48.148;16.326;2023-02-15T03:06:41;27.80;;;16.47;;
10565;SDS011;5331;48.148;16.326;2023-02-15T03:09:14;28.87;;;16.90;;
10565;SDS011;5331;48.148;16.326;2023-02-15T03:11:47;28.20;;;16.67;;
10565;SDS011;5331;48.148;16.326;2023-02-15T03:14:15;28.37;;;16.23;;
10565;SDS011;5331;48.148;16.326;2023-02-15T03:16:46;28.57;;;16.67;;
10565;SDS011;5331;48.148;16.326;2023-02-15T03:19:19;27.57;;;16.20;;
10565;SDS011;5331;48.148;16.326;2023-02-15T03:21:51;28.50;;;16.47;;
10565;SDS011;5331;48.148;16.326;2023-02-15T03:24:29;28.90;;;16.20;;
10565;SDS011;5331;48.148;16.326;2023-02-15T03:27:00;29.97;;;16.23;;
10565;SDS011;5331;48.148;16.326;2023-02-15T03:29:30;25.13;;;15.30;;
10565;SDS011;5331;48.148;16.326;2023-02-15T03:32:07;27.60;;;16.53;;
10565;SDS011;5331;48.148;16.326;2023-02-15T03:34:38;24.47;;;14.57;;
10565;SDS011;5331;48.148;16.326;2023-02-15T03:37:07;27.27;;;15.57;;
10565;SDS011;5331;48.148;16.326;2023-02-15T03:39:39;28.63;;;17.17;;
10565;SDS011;5331;48.148;16.326;2023-02-15T03:42:12;26.73;;;16.27;;
10565;SDS011;5331;48.148;16.326;2023-02-15T03:44:46;25.00;;;15.77;;
10565;SDS011;5331;48.148;16.326;2023-02-15T03:47:18;27.03;;;15.83;;
10565;SDS011;5331;48.148;16.326;2023-02-15T03:49:48;26.67;;;15.63;;
10565;SDS011;5331;48.148;16.326;2023-02-15T03:52:18;29.37;;;15.77;;
10565;SDS011;5331;48.148;16.326;2023-02-15T03:54:46;26.17;;;16.10;;
10565;SDS011;5331;48.148;16.326;2023-02-15T03:57:16;29.10;;;16.37;;
10565;SDS011;5331;48.148;16.326;2023-02-15T04:00:03;26.53;;;15.43;;
10565;SDS011;5331;48.148;16.326;2023-02-15T04:05:49;28.30;;;16.13;;
10565;SDS011;5331;48.148;16.326;2023-02-15T04:08:16;28.43;;;16.13;;
10565;SDS011;5331;48.148;16.326;2023-02-15T04:10:43;29.23;;;16.90;;
10565;SDS011;5331;48.148;16.326;2023-02-15T04:13:20;30.67;;;17.60;;
10565;SDS011;5331;48.148;16.326;2023-02-15T04:15:48;31.13;;;16.97;;
10565;SDS011;5331;48.148;16.326;2023-02-15T04:18:29;27.57;;;15.97;;
10565;SDS011;5331;48.148;16.326;2023-02-15T04:21:16;27.77;;;16.57;;
10565;SDS011;5331;48.148;16.326;2023-02-15T04:24:00;27.27;;;15.87;;
10565;SDS011;5331;48.148;16.326;2023-02-15T04:26:44;28.93;;;17.00;;
10565;SDS011;5331;48.148;16.326;2023-02-15T04:29:12;27.83;;;16.60;;
10565;SDS011;5331;48.148;16.326;2023-02-15T04:31:39;27.57;;;15.80;;
10565;SDS011;5331;48.148;16.326;2023-02-15T04:34:07;30.47;;;17.83;;
10565;SDS011;5331;48.148;16.326;2023-02-15T04:36:36;29.33;;;17.33;;
10565;SDS011;5331;48.148;16.326;2023-02-15T04:39:04;29.27;;;17.17;;
10565;SDS011;5331;48.148;16.326;2023-02-15T04:41:31;30.63;;;17.23;;
10565;SDS011;5331;48.148;16.326;2023-02-15T04:43:59;25.93;;;15.63;;
10565;SDS011;5331;48.148;16.326;2023-02-15T04:46:26;27.73;;;16.90;;
10565;SDS011;5331;48.148;16.326;2023-02-15T04:48:53;29.20;;;16.57;;
10565;SDS011;5331;48.148;16.326;2023-02-15T04:51:21;29.77;;;17.20;;
10565;SDS011;5331;48.148;16.326;2023-02-15T04:53:49;28.50;;;16.97;;
10565;SDS011;5331;48.148;16.326;2023-02-15T04:56:17;27.73;;;16.50;;
10565;SDS011;5331;48.148;16.326;2023-02-15T04:58:44;31.53;;;17.93;;
10565;SDS011;5331;48.148;16.326;2023-02-15T05:01:11;29.63;;;16.80;;
10565;SDS011;5331;48.148;16.326;2023-02-15T05:03:38;25.57;;;16.17;;
10565;SDS011;5331;48.148;16.326;2023-02-15T05:06:05;27.67;;;16.47;;
10565;SDS011;5331;48.148;16.326;2023-02-15T05:08:32;26.87;;;16.23;;
10565;SDS011;5331;48.148;16.326;2023-02-15T05:11:01;26.93;;;16.43;;
10565;SDS011;5331;48.148;16.326;2023-02-15T05:13:28;29.63;;;17.13;;
10565;SDS011;5331;48.148;16.326;2023-02-15T05:15:55;26.77;;;15.57;;
10565;SDS011;5331;48.148;16.326;2023-02-15T05:18:22;28.60;;;15.83;;
10565;SDS011;5331;48.148;16.326;2023-02-15T05:20:49;28.10;;;16.73;;
10565;SDS011;5331;48.148;16.326;2023-02-15T05:23:16;31.10;;;17.03;;
10565;SDS011;5331;48.148;16.326;2023-02-15T05:25:46;29.40;;;17.33;;
10565;SDS011;5331;48.148;16.326;2023-02-15T05:28:33;29.80;;;17.07;;
10565;SDS011;5331;48.148;16.326;2023-02-15T05:31:10;27.57;;;16.70;;
10565;SDS011;5331;48.148;16.326;2023-02-15T05:33:38;27.73;;;16.03;;
10565;SDS011;5331;48.148;16.326;2023-02-15T05:36:06;26.10;;;15.63;;
10565;SDS011;5331;48.148;16.326;2023-02-15T05:38:33;27.27;;;16.00;;
10565;SDS011;5331;48.148;16.326;2023-02-15T05:43:36;24.07;;;14.57;;
10565;SDS011;5331;48.148;16.326;2023-02-15T05:46:04;29.67;;;15.47;;
10565;SDS011;5331;48.148;16.326;2023-02-15T05:48:31;31.93;;;16.97;;
10565;SDS011;5331;48.148;16.326;2023-02-15T05:50:59;26.43;;;15.43;;
10565;SDS011;5331;48.148;16.326;2023-02-15T05:53:27;30.00;;;16.70;;
10565;SDS011;5331;48.148;16.326;2023-02-15T05:55:55;30.13;;;16.97;;
10565;SDS011;5331;48.148;16.326;2023-02-15T05:58:28;30.47;;;16.83;;
10565;SDS011;5331;48.148;16.326;2023-02-15T06:00:58;30.17;;;16.87;;
10565;SDS011;5331;48.148;16.326;2023-02-15T06:03:25;30.90;;;17.47;;
10565;SDS011;5331;48.148;16.326;2023-02-15T06:05:53;28.17;;;16.50;;
10565;SDS011;5331;48.148;16.326;2023-02-15T06:08:20;30.60;;;16.87;;
10565;SDS011;5331;48.148;16.326;2023-02-15T06:10:47;28.73;;;17.30;;
10565;SDS011;5331;48.148;16.326;2023-02-15T06:13:14;28.67;;;16.03;;
10565;SDS011;5331;48.148;16.326;2023-02-15T06:15:41;29.13;;;16.27;;
10565;SDS011;5331;48.148;16.326;2023-02-15T06:18:10;28.70;;;16.80;;
10565;SDS011;5331;48.148;16.326;2023-02-15T06:20:37;27.23;;;16.50;;
10565;SDS011;5331;48.148;16.326;2023-02-15T06:23:04;25.63;;;14.77;;
10565;SDS011;5331;48.148;16.326;2023-02-15T06:25:31;27.33;;;15.67;;
10565;SDS011;5331;48.148;16.326;2023-02-15T06:27:58;24.47;;;14.67;;
10565;SDS011;5331;48.148;16.326;2023-02-15T06:30:25;27.57;;;15.60;;
10565;SDS011;5331;48.148;16.326;2023-02-15T06:32:58;29.40;;;15.73;;
10565;SDS011;5331;48.148;16.326;2023-02-15T06:35:29;25.97;;;14.90;;
10565;SDS011;5331;48.148;16.326;2023-02-15T06:38:04;29.00;;;16.47;;
10565;SDS011;5331;48.148;16.326;2023-02-15T06:40:32;28.57;;;16.53;;
10565;SDS011;5331;48.148;16.326;2023-02-15T06:42:59;28.63;;;15.70;;
10565;SDS011;5331;48.148;16.326;2023-02-15T06:45:25;26.63;;;15.70;;
10565;SDS011;5331;48.148;16.326;2023-02-15T06:47:53;28.80;;;15.70;;
10565;SDS011;5331;48.148;16.326;2023-02-15T06:50:20;30.53;;;16.40;;
10565;SDS011;5331;48.148;16.326;2023-02-15T06:52:48;28.90;;;16.47;;
10565;SDS011;5331;48.148;16.326;2023-02-15T06:55:15;28.83;;;16.53;;
10565;SDS011;5331;48.148;16.326;2023-02-15T06:57:42;26.57;;;16.40;;
10565;SDS011;5331;48.148;16.326;2023-02-15T07:00:15;25.40;;;14.90;;
10565;SDS011;5331;48.148;16.326;2023-02-15T07:02:43;27.23;;;15.63;;
10565;SDS011;5331;48.148;16.326;2023-02-15T07:05:10;28.83;;;16.47;;
10565;SDS011;5331;48.148;16.326;2023-02-15T07:07:37;27.67;;;16.27;;
10565;SDS011;5331;48.148;16.326;2023-02-15T07:10:06;27.83;;;16.10;;
10565;SDS011;5331;48.148;16.326;2023-02-15T07:12:33;27.67;;;15.50;;
10565;SDS011;5331;48.148;16.326;2023-02-15T07:15:09;28.00;;;17.23;;
10565;SDS011;5331;48.148;16.326;2023-02-15T07:17:37;25.47;;;15.43;;
10565;SDS011;5331;48.148;16.326;2023-02-15T07:20:06;27.33;;;16.23;;
10565;SDS011;5331;48.148;16.326;2023-02-15T07:22:34;28.50;;;15.83;;
10565;SDS011;5331;48.148;16.326;2023-02-15T07:25:02;27.63;;;15.57;;
10565;SDS011;5331;48.148;16.326;2023-02-15T07:27:31;31.23;;;17.03;;
10565;SDS011;5331;48.148;16.326;2023-02-15T07:30:06;29.77;;;16.17;;
10565;SDS011;5331;48.148;16.326;2023-02-15T07:32:35;32.87;;;17.67;;
10565;SDS011;5331;48.148;16.326;2023-02-15T07:35:22;31.77;;;17.93;;
10565;SDS011;5331;48.148;16.326;2023-02-15T07:37:57;28.50;;;16.27;;
10565;SDS011;5331;48.148;16.326;2023-02-15T07:40:24;30.63;;;17.40;;
10565;SDS011;5331;48.148;16.326;2023-02-15T07:42:52;30.30;;;16.57;;
10565;SDS011;5331;48.148;16.326;2023-02-15T07:45:21;29.43;;;16.73;;
10565;SDS011;5331;48.148;16.326;2023-02-15T07:47:48;30.53;;;16.20;;
10565;SDS011;5331;48.148;16.326;2023-02-15T07:50:15;29.60;;;17.40;;
10565;SDS011;5331;48.148;16.326;2023-02-15T07:52:43;28.33;;;16.80;;
10565;SDS011;5331;48.148;16.326;2023-02-15T07:55:09;30.07;;;16.53;;
10565;SDS011;5331;48.148;16.326;2023-02-15T07:57:41;29.03;;;15.77;;
10565;SDS011;5331;48.148;16.326;2023-02-15T08:00:11;30.87;;;17.80;;
10565;SDS011;5331;48.148;16.326;2023-02-15T08:02:39;33.30;;;18.27;;
10565;SDS011;5331;48.148;16.326;2023-02-15T08:05:08;29.20;;;16.77;;
10565;SDS011;5331;48.148;16.326;2023-02-15T08:07:35;35.87;;;19.17;;
10565;SDS011;5331;48.148;16.326;2023-02-15T08:10:02;28.57;;;17.10;;
10565;SDS011;5331;48.148;16.326;2023-02-15T08:12:35;29.83;;;16.70;;
10565;SDS011;5331;48.148;16.326;2023-02-15T08:15:02;30.77;;;16.50;;
10565;SDS011;5331;48.148;16.326;2023-02-15T08:17:31;28.27;;;15.83;;
10565;SDS011;5331;48.148;16.326;2023-02-15T08:20:02;29.00;;;16.37;;
10565;SDS011;5331;48.148;16.326;2023-02-15T08:22:29;29.07;;;16.93;;
10565;SDS011;5331;48.148;16.326;2023-02-15T08:24:56;26.80;;;16.03;;
10565;SDS011;5331;48.148;16.326;2023-02-15T08:27:23;28.50;;;15.90;;
10565;SDS011;5331;48.148;16.326;2023-02-15T08:29:51;29.80;;;17.30;;
10565;SDS011;5331;48.148;16.326;2023-02-15T08:32:18;30.10;;;16.77;;
10565;SDS011;5331;48.148;16.326;2023-02-15T08:34:49;30.17;;;16.63;;
10565;SDS011;5331;48.148;16.326;2023-02-15T08:37:16;26.63;;;15.97;;
10565;SDS011;5331;48.148;16.326;2023-02-15T08:39:43;29.13;;;16.73;;
10565;SDS011;5331;48.148;16.326;2023-02-15T08:42:10;28.00;;;16.13;;
10565;SDS011;5331;48.148;16.326;2023-02-15T08:44:37;27.83;;;16.37;;
10565;SDS011;5331;48.148;16.326;2023-02-15T08:47:04;28.93;;;16.67;;
10565;SDS011;5331;48.148;16.326;2023-02-15T08:49:32;32.17;;;17.30;;
10565;SDS011;5331;48.148;16.326;2023-02-15T08:52:00;33.03;;;17.87;;
10565;SDS011;5331;48.148;16.326;2023-02-15T08:54:27;31.20;;;17.20;;
10565;SDS011;5331;48.148;16.326;2023-02-15T08:56:54;30.03;;;17.23;;
10565;SDS011;5331;48.148;16.326;2023-02-15T08:59:22;25.80;;;15.33;;
10565;SDS011;5331;48.148;16.326;2023-02-15T09:01:52;31.10;;;17.10;;
10565;SDS011;5331;48.148;16.326;2023-02-15T09:04:20;30.53;;;17.10;;
10565;SDS011;5331;48.148;16.326;2023-02-15T09:06:48;30.60;;;17.13;;
10565;SDS011;5331;48.148;16.326;2023-02-15T09:09:17;31.60;;;17.50;;
10565;SDS011;5331;48.148;16.326;2023-02-15T09:11:45;28.07;;;16.90;;
10565;SDS011;5331;48.148;16.326;2023-02-15T09:14:15;28.87;;;16.50;;
10565;SDS011;5331;48.148;16.326;2023-02-15T09:16:45;30.97;;;17.87;;
10565;SDS011;5331;48.148;16.326;2023-02-15T09:19:14;28.57;;;16.33;;
10565;SDS011;5331;48.148;16.326;2023-02-15T09:21:42;30.53;;;17.60;;
10565;SDS011;5331;48.148;16.326;2023-02-15T09:24:10;29.23;;;16.37;;
10565;SDS011;5331;48.148;16.326;2023-02-15T09:26:41;27.73;;;16.47;;
10565;SDS011;5331;48.148;16.326;2023-02-15T09:29:09;29.40;;;17.17;;
10565;SDS011;5331;48.148;16.326;2023-02-15T09:31:38;28.40;;;16.57;;
10565;SDS011;5331;48.148;16.326;2023-02-15T09:34:09;32.60;;;17.50;;
10565;SDS011;5331;48.148;16.326;2023-02-15T09:36:37;30.10;;;17.27;;
10565;SDS011;5331;48.148;16.326;2023-02-15T09:39:06;30.97;;;16.40;;
10565;SDS011;5331;48.148;16.326;2023-02-15T09:41:48;29.83;;;16.60;;
10565;SDS011;5331;48.148;16.326;2023-02-15T09:44:40;30.53;;;16.93;;
10565;SDS011;5331;48.148;16.326;2023-02-15T09:50:18;28.97;;;17.27;;
10565;SDS011;5331;48.148;16.326;2023-02-15T09:52:59;29.10;;;16.50;;
10565;SDS011;5331;48.148;16.326;2023-02-15T09:55:42;27.33;;;16.47;;
10565;SDS011;5331;48.148;16.326;2023-02-15T09:58:22;29.13;;;16.93;;
10565;SDS011;5331;48.148;16.326;2023-02-15T10:00:58;27.03;;;16.20;;
10565;SDS011;5331;48.148;16.326;2023-02-15T10:03:33;29.30;;;16.97;;
10565;SDS011;5331;48.148;16.326;2023-02-15T10:06:21;32.07;;;17.17;;
10565;SDS011;5331;48.148;16.326;2023-02-15T10:09:00;32.63;;;17.60;;
10565;SDS011;5331;48.148;16.326;2023-02-15T10:11:37;28.83;;;16.37;;
10565;SDS011;5331;48.148;16.326;2023-02-15T10:14:21;31.03;;;16.43;;
10565;SDS011;5331;48.148;16.326;2023-02-15T10:17:05;29.57;;;16.87;;
10565;SDS011;5331;48.148;16.326;2023-02-15T10:19:44;28.80;;;16.63;;
10565;SDS011;5331;48.148;16.326;2023-02-15T10:22:25;30.17;;;15.83;;
10565;SDS011;5331;48.148;16.326;2023-02-15T10:25:14;28.97;;;16.43;;
10565;SDS011;5331;48.148;16.326;2023-02-15T10:27:54;29.60;;;17.00;;
10565;SDS011;5331;48.148;16.326;2023-02-15T10:30:27;28.50;;;16.33;;
10565;SDS011;5331;48.148;16.326;2023-02-15T10:33:02;31.03;;;16.73;;
10565;SDS011;5331;48.148;16.326;2023-02-15T10:35:33;27.17;;;14.83;;
10565;SDS011;5331;48.148;16.326;2023-02-15T10:38:15;29.37;;;15.87;;
10565;SDS011;5331;48.148;16.326;2023-02-15T10:40:55;29.70;;;17.07;;
10565;SDS011;5331;48.148;16.326;2023-02-15T10:46:37;32.77;;;16.17;;
10565;SDS011;5331;48.148;16.326;2023-02-15T10:49:23;30.43;;;16.67;;
10565;SDS011;5331;48.148;16.326;2023-02-15T10:52:01;27.10;;;15.90;;
10565;SDS011;5331;48.148;16.326;2023-02-15T10:54:41;31.33;;;16.97;;
10565;SDS011;5331;48.148;16.326;2023-02-15T10:57:17;31.20;;;16.20;;
10565;SDS011;5331;48.148;16.326;2023-02-15T10:59:54;30.43;;;17.03;;
10565;SDS011;5331;48.148;16.326;2023-02-15T11:02:36;30.73;;;16.13;;
10565;SDS011;5331;48.148;16.326;2023-02-15T11:05:17;29.30;;;16.17;;
10565;SDS011;5331;48.148;16.326;2023-02-15T11:07:52;29.67;;;16.10;;
10565;SDS011;5331;48.148;16.326;2023-02-15T11:10:26;28.60;;;15.50;;
10565;SDS011;5331;48.148;16.326;2023-02-15T11:12:57;31.03;;;15.43;;
10565;SDS011;5331;48.148;16.326;2023-02-15T11:15:36;30.60;;;16.40;;
10565;SDS011;5331;48.148;16.326;2023-02-15T11:18:11;29.83;;;15.33;;
10565;SDS011;5331;48.148;16.326;2023-02-15T11:20:42;29.63;;;15.17;;
10565;SDS011;5331;48.148;16.326;2023-02-15T11:23:14;30.50;;;15.67;;
10565;SDS011;5331;48.148;16.326;2023-02-15T11:25:45;27.53;;;15.57;;
10565;SDS011;5331;48.148;16.326;2023-02-15T11:28:20;28.37;;;15.43;;
10565;SDS011;5331;48.148;16.326;2023-02-15T11:30:54;28.80;;;15.43;;
10565;SDS011;5331;48.148;16.326;2023-02-15T11:33:25;29.67;;;16.00;;
10565;SDS011;5331;48.148;16.326;2023-02-15T11:35:57;30.77;;;16.57;;
10565;SDS011;5331;48.148;16.326;2023-02-15T11:38:28;35.00;;;17.77;;
10565;SDS011;5331;48.148;16.326;2023-02-15T11:40:59;31.07;;;16.90;;
10565;SDS011;5331;48.148;16.326;2023-02-15T11:43:32;29.60;;;16.10;;
10565;SDS011;5331;48.148;16.326;2023-02-15T11:46:02;30.73;;;16.70;;
10565;SDS011;5331;48.148;16.326;2023-02-15T11:48:31;31.03;;;17.70;;
10565;SDS011;5331;48.148;16.326;2023-02-15T11:50:58;32.67;;;15.93;;
10565;SDS011;5331;48.148;16.326;2023-02-15T11:53:26;30.93;;;16.43;;
10565;SDS011;5331;48.148;16.326;2023-02-15T11:56:02;32.63;;;17.20;;
10565;SDS011;5331;48.148;16.326;2023-02-15T11:58:32;30.43;;;16.70;;
10565;SDS011;5331;48.148;16.326;2023-02-15T12:01:08;31.70;;;16.50;;
10565;SDS011;5331;48.148;16.326;2023-02-15T12:03:44;30.27;;;16.03;;
10565;SDS011;5331;48.148;16.326;2023-02-15T12:06:18;31.77;;;16.53;;
10565;SDS011;5331;48.148;16.326;2023-02-15T12:08:55;30.97;;;17.00;;
10565;SDS011;5331;48.148;16.326;2023-02-15T12:11:30;31.57;;;16.77;;
10565;SDS011;5331;48.148;16.326;2023-02-15T12:16:40;30.87;;;16.47;;
10565;SDS011;5331;48.148;16.326;2023-02-15T12:19:17;30.63;;;15.87;;
10565;SDS011;5331;48.148;16.326;2023-02-15T12:21:51;33.77;;;17.37;;
10565;SDS011;5331;48.148;16.326;2023-02-15T12:24:21;34.33;;;17.77;;
10565;SDS011;5331;48.148;16.326;2023-02-15T12:26:58;32.23;;;17.20;;
10565;SDS011;5331;48.148;16.326;2023-02-15T12:29:30;30.00;;;16.37;;
10565;SDS011;5331;48.148;16.326;2023-02-15T12:32:01;29.97;;;17.27;;
10565;SDS011;5331;48.148;16.326;2023-02-15T12:34:35;32.87;;;17.83;;
10565;SDS011;5331;48.148;16.326;2023-02-15T12:37:08;30.40;;;16.37;;
10565;SDS011;5331;48.148;16.326;2023-02-15T12:39:44;30.13;;;16.43;;
10565;SDS011;5331;48.148;16.326;2023-02-15T12:42:18;35.77;;;18.20;;
10565;SDS011;5331;48.148;16.326;2023-02-15T12:44:54;33.07;;;17.30;;
10565;SDS011;5331;48.148;16.326;2023-02-15T12:47:23;31.70;;;17.00;;
10565;SDS011;5331;48.148;16.326;2023-02-15T12:50:07;33.17;;;18.10;;
10565;SDS011;5331;48.148;16.326;2023-02-15T12:52:41;29.40;;;16.43;;
10565;SDS011;5331;48.148;16.326;2023-02-15T12:55:10;32.20;;;17.63;;
10565;SDS011;5331;48.148;16.326;2023-02-15T12:57:44;31.83;;;17.30;;
10565;SDS011;5331;48.148;16.326;2023-02-15T13:00:24;33.33;;;17.90;;
10565;SDS011;5331;48.148;16.326;2023-02-15T13:02:54;29.50;;;16.70;;
10565;SDS011;5331;48.148;16.326;2023-02-15T13:05:25;30.80;;;17.40;;
10565;SDS011;5331;48.148;16.326;2023-02-15T13:07:57;31.53;;;17.27;;
10565;SDS011;5331;48.148;16.326;2023-02-15T13:10:28;29.20;;;16.27;;
10565;SDS011;5331;48.148;16.326;2023-02-15T13:12:57;30.57;;;16.53;;
10565;SDS011;5331;48.148;16.326;2023-02-15T13:15:29;30.90;;;17.37;;
10565;SDS011;5331;48.148;16.326;2023-02-15T13:18:01;31.47;;;16.70;;
10565;SDS011;5331;48.148;16.326;2023-02-15T13:20:32;28.57;;;16.20;;
10565;SDS011;5331;48.148;16.326;2023-02-15T13:23:02;28.47;;;16.33;;
10565;SDS011;5331;48.148;16.326;2023-02-15T13:25:38;28.30;;;15.77;;
10565;SDS011;5331;48.148;16.326;2023-02-15T13:28:20;31.23;;;16.80;;
10565;SDS011;5331;48.148;16.326;2023-02-15T13:33:30;34.30;;;17.47;;
10565;SDS011;5331;48.148;16.326;2023-02-15T13:36:05;31.33;;;16.40;;
10565;SDS011;5331;48.148;16.326;2023-02-15T13:38:43;32.00;;;16.40;;
10565;SDS011;5331;48.148;16.326;2023-02-15T13:41:16;28.93;;;15.93;;
10565;SDS011;5331;48.148;16.326;2023-02-15T13:43:50;28.73;;;15.17;;
10565;SDS011;5331;48.148;16.326;2023-02-15T13:46:29;29.67;;;15.70;;
10565;SDS011;5331;48.148;16.326;2023-02-15T13:52:17;30.77;;;16.73;;
10565;SDS011;5331;48.148;16.326;2023-02-15T13:55:06;29.13;;;16.13;;
10565;SDS011;5331;48.148;16.326;2023-02-15T13:57:56;27.97;;;16.00;;
10565;SDS011;5331;48.148;16.326;2023-02-15T14:00:43;27.40;;;15.67;;
10565;SDS011;5331;48.148;16.326;2023-02-15T14:03:34;31.27;;;16.40;;
10565;SDS011;5331;48.148;16.326;2023-02-15T14:06:42;30.83;;;15.87;;
10565;SDS011;5331;48.148;16.326;2023-02-15T14:09:33;28.43;;;15.87;;
10565;SDS011;5331;48.148;16.326;2023-02-15T14:12:20;29.93;;;16.33;;
10565;SDS011;5331;48.148;16.326;2023-02-15T14:17:55;29.53;;;16.10;;
10565;SDS011;5331;48.148;16.326;2023-02-15T14:20:47;29.07;;;15.93;;
10565;SDS011;5331;48.148;16.326;2023-02-15T14:23:27;28.17;;;15.50;;
10565;SDS011;5331;48.148;16.326;2023-02-15T14:26:05;27.73;;;15.23;;
10565;SDS011;5331;48.148;16.326;2023-02-15T14:28:40;27.47;;;15.53;;
10565;SDS011;5331;48.148;16.326;2023-02-15T14:31:15;26.30;;;15.00;;
10565;SDS011;5331;48.148;16.326;2023-02-15T14:33:47;27.20;;;15.17;;
10565;SDS011;5331;48.148;16.326;2023-02-15T14:36:20;27.53;;;15.63;;
10565;SDS011;5331;48.148;16.326;2023-02-15T14:38:52;29.67;;;15.90;;
10565;SDS011;5331;48.148;16.326;2023-02-15T14:41:29;28.87;;;16.43;;
10565;SDS011;5331;48.148;16.326;2023-02-15T14:44:05;28.67;;;16.47;;
10565;SDS011;5331;48.148;16.326;2023-02-15T14:46:42;30.67;;;16.63;;
10565;SDS011;5331;48.148;16.326;2023-02-15T14:49:15;29.57;;;16.27;;
10565;SDS011;5331;48.148;16.326;2023-02-15T14:51:59;34.07;;;16.67;;
10565;SDS011;5331;48.148;16.326;2023-02-15T14:57:37;29.73;;;16.60;;
10565;SDS011;5331;48.148;16.326;2023-02-15T15:03:19;27.80;;;15.57;;
10565;SDS011;5331;48.148;16.326;2023-02-15T15:05:50;29.23;;;16.33;;
10565;SDS011;5331;48.148;16.326;2023-02-15T15:08:24;32.90;;;16.70;;
10565;SDS011;5331;48.148;16.326;2023-02-15T15:10:55;31.30;;;16.33;;
10565;SDS011;5331;48.148;16.326;2023-02-15T15:13:53;29.10;;;16.63;;
10565;SDS011;5331;48.148;16.326;2023-02-15T15:16:28;32.63;;;16.77;;
10565;SDS011;5331;48.148;16.326;2023-02-15T15:19:12;32.63;;;16.77;;
10565;SDS011;5331;48.148;16.326;2023-02-15T15:22:29;37.23;;;18.17;;
10565;SDS011;5331;48.148;16.326;2023-02-15T15:25:00;35.80;;;18.23;;